Time;durP1;ratioP1;P1;durP2;ratioP2;P2;SDS_P1;SDS_P2;PMS_P1;PMS_P2;Temp;Humidity;BMP_temperature;BMP_pressure;BME280_temperature;BME280_humidity;BME280_pressure;Samples;Min_cycle;Max_cycle;Signal;HPM_P1;HPM_P2
2023/01/24 00:01:33;;;;;;;2.90;2.20;;;3.50;99.90;;;;;;5071481;28;20450;-72
2023/01/24 00:04:00;;;;;;;3.00;2.50;;;3.60;99.90;;;;;;5071486;28;20456;-70
2023/01/24 00:06:27;;;;;;;3.13;2.73;;;3.60;99.90;;;;;;5036310;28;20636;-71
2023/01/24 00:08:55;;;;;;;5.87;4.13;;;3.60;99.90;;;;;;5071481;28;20882;-71
2023/01/24 00:11:24;;;;;;;2.00;1.70;;;3.70;99.90;;;;;;5071769;28;20451;-70
2023/01/24 00:13:50;;;;;;;3.13;2.87;;;3.70;99.90;;;;;;5071870;28;20447;-70
2023/01/24 00:16:19;;;;;;;8.10;5.00;;;3.50;99.90;;;;;;5071621;28;20448;-71
2023/01/24 00:18:47;;;;;;;3.43;3.13;;;3.50;99.90;;;;;;5071250;28;20473;-70
2023/01/24 00:21:15;;;;;;;1.73;1.27;;;3.60;99.90;;;;;;5075308;28;20497;-71
2023/01/24 00:23:58;;;;;;;2.80;2.60;;;3.60;99.90;;;;;;5075612;28;20553;-72
2023/01/24 00:26:27;;;;;;;5.57;2.63;;;3.50;99.90;;;;;;5076745;28;20994;-72
2023/01/24 00:29:00;;;;;;;4.73;2.53;;;3.60;99.90;;;;;;5076344;28;20448;-72
2023/01/24 00:31:26;;;;;;;7.73;4.67;;;3.60;99.90;;;;;;5074946;28;20461;-71
2023/01/24 00:33:53;;;;;;;3.40;2.37;;;3.50;99.90;;;;;;5074655;28;20925;-71
2023/01/24 00:36:20;;;;;;;5.43;2.87;;;3.60;99.90;;;;;;5074794;28;20451;-71
2023/01/24 00:38:47;;;;;;;3.07;2.40;;;3.70;99.90;;;;;;5074664;28;20457;-71
2023/01/24 00:41:14;;;;;;;7.33;4.20;;;3.70;99.90;;;;;;5074939;28;20546;-70
2023/01/24 00:43:43;;;;;;;3.63;3.20;;;3.60;99.90;;;;;;5075250;28;20509;-71
2023/01/24 00:46:10;;;;;;;5.00;2.07;;;3.60;99.90;;;;;;5074905;28;20427;-70
2023/01/24 00:48:37;;;;;;;5.63;2.40;;;3.70;99.90;;;;;;5074537;28;20505;-70
2023/01/24 00:51:05;;;;;;;2.50;1.80;;;3.60;99.90;;;;;;5074408;28;20473;-71
2023/01/24 00:53:32;;;;;;;2.00;1.80;;;3.60;99.90;;;;;;5074869;28;20447;-70
2023/01/24 00:55:59;;;;;;;2.40;1.33;;;3.50;99.90;;;;;;5074635;28;20422;-70
2023/01/24 00:58:26;;;;;;;1.93;1.83;;;3.50;99.90;;;;;;5074640;28;20494;-71
2023/01/24 01:00:58;;;;;;;2.93;2.20;;;3.50;99.90;;;;;;5078881;28;20507;-71
2023/01/24 01:03:25;;;;;;;3.73;2.00;;;3.40;99.90;;;;;;5074845;28;20466;-70
2023/01/24 01:05:58;;;;;;;3.20;2.87;;;3.40;99.90;;;;;;5074517;28;20576;-70
2023/01/24 01:08:26;;;;;;;5.03;2.73;;;3.40;99.90;;;;;;5074565;28;20466;-70
2023/01/24 01:10:53;;;;;;;2.97;1.80;;;3.40;99.90;;;;;;5074349;28;20994;-70
2023/01/24 01:13:20;;;;;;;4.33;3.80;;;3.40;99.90;;;;;;5074461;28;20422;-70
2023/01/24 01:15:47;;;;;;;3.43;2.30;;;3.40;99.90;;;;;;5074674;28;20506;-70
2023/01/24 01:18:18;;;;;;;2.60;1.73;;;3.40;99.90;;;;;;5074434;28;20618;-71
2023/01/24 01:20:50;;;;;;;5.07;3.73;;;3.40;99.90;;;;;;5074692;28;20494;-70
2023/01/24 01:23:17;;;;;;;6.03;4.40;;;3.30;99.90;;;;;;5073982;28;20406;-70
2023/01/24 01:25:44;;;;;;;3.40;3.00;;;3.30;99.90;;;;;;5073858;28;20450;-70
2023/01/24 01:28:13;;;;;;;3.17;2.67;;;3.40;99.90;;;;;;5072574;28;20557;-70
2023/01/24 01:30:40;;;;;;;4.70;2.13;;;3.40;99.90;;;;;;5074438;28;20457;-71
2023/01/24 01:33:07;;;;;;;3.90;2.50;;;3.30;99.90;;;;;;5073839;28;20458;-71
2023/01/24 01:35:35;;;;;;;4.67;3.27;;;3.30;99.90;;;;;;5073693;28;20438;-71
2023/01/24 01:38:02;;;;;;;3.83;3.30;;;3.40;99.90;;;;;;5073596;28;20499;-71
2023/01/24 01:40:29;;;;;;;3.50;2.00;;;3.40;99.90;;;;;;5076731;28;20480;-71
2023/01/24 01:42:56;;;;;;;5.17;1.43;;;3.40;99.90;;;;;;5076823;28;20479;-71
2023/01/24 01:45:40;;;;;;;6.20;3.13;;;3.40;99.90;;;;;;5074493;28;20489;-71
2023/01/24 01:48:16;;;;;;;3.83;2.90;;;3.40;99.90;;;;;;5075254;28;20475;-71
2023/01/24 01:50:50;;;;;;;2.33;2.13;;;3.50;99.90;;;;;;5073196;28;20509;-71
2023/01/24 01:53:17;;;;;;;6.53;3.90;;;3.40;99.90;;;;;;5073452;28;20489;-71
2023/01/24 01:55:50;;;;;;;3.30;3.00;;;3.50;99.90;;;;;;5073375;28;20797;-71
2023/01/24 01:58:19;;;;;;;2.40;1.80;;;3.60;99.90;;;;;;5073093;28;20465;-70
2023/01/24 02:00:50;;;;;;;2.70;2.50;;;3.50;99.90;;;;;;5073164;28;20450;-70
2023/01/24 02:03:40;;;;;;;2.60;2.37;;;3.50;99.90;;;;;;5073410;28;20673;-71
2023/01/24 02:06:16;;;;;;;7.70;3.83;;;3.40;99.90;;;;;;5073207;28;20764;-71
2023/01/24 02:08:45;;;;;;;3.50;3.07;;;3.40;99.90;;;;;;5037501;28;20460;-70
2023/01/24 02:16:41;;;;;;;4.10;2.20;;;3.40;99.90;;;;;;5072873;28;20427;-70
2023/01/24 02:19:16;;;;;;;2.20;1.60;;;3.40;99.90;;;;;;5073012;28;20488;-71
2023/01/24 02:21:45;;;;;;;3.30;2.93;;;3.40;99.90;;;;;;5080419;28;20518;-71
2023/01/24 02:24:20;;;;;;;1.93;1.67;;;3.30;99.90;;;;;;5073062;28;20532;-71
2023/01/24 02:26:48;;;;;;;5.70;3.73;;;3.40;99.90;;;;;;5073398;28;20424;-70
2023/01/24 02:29:17;;;;;;;3.17;2.00;;;3.40;99.90;;;;;;5072569;28;20463;-70
2023/01/24 02:31:55;;;;;;;1.90;1.53;;;3.50;99.90;;;;;;5073065;28;20454;-71
2023/01/24 02:34:22;;;;;;;1.30;0.93;;;3.50;99.90;;;;;;5072768;28;20430;-71
2023/01/24 02:36:52;;;;;;;1.70;1.40;;;3.40;99.90;;;;;;5072649;28;20475;-71
2023/01/24 02:39:25;;;;;;;2.60;2.00;;;3.40;99.90;;;;;;5072500;28;20458;-70
2023/01/24 02:41:56;;;;;;;8.77;4.63;;;3.30;99.90;;;;;;5072445;28;20431;-71
2023/01/24 02:44:29;;;;;;;3.43;2.80;;;3.30;99.90;;;;;;5072702;28;20488;-71
2023/01/24 02:46:56;;;;;;;1.37;1.07;;;3.30;99.90;;;;;;5070832;28;20399;-72
2023/01/24 02:49:23;;;;;;;2.50;2.30;;;3.30;99.90;;;;;;5073356;28;20445;-72
2023/01/24 02:54:34;;;;;;;10.93;3.53;;;3.30;99.90;;;;;;5071938;28;20423;-71
2023/01/24 02:59:47;;;;;;;3.40;2.10;;;3.40;99.90;;;;;;5075217;28;20457;-71
2023/01/24 03:02:14;;;;;;;6.20;5.53;;;3.40;99.90;;;;;;5078217;28;20531;-71
2023/01/24 03:04:41;;;;;;;1.00;0.90;;;3.40;99.90;;;;;;5072864;28;20433;-71
2023/01/24 03:07:09;;;;;;;3.00;1.63;;;3.30;99.90;;;;;;5072989;28;20956;-72
2023/01/24 03:09:38;;;;;;;3.27;1.57;;;3.30;99.90;;;;;;5071665;28;20934;-71
2023/01/24 03:36:54;;;;;;;6.83;4.07;;;3.30;99.90;;;;;;5071550;28;20480;-71
2023/01/24 03:42:05;;;;;;;4.53;2.97;;;3.30;99.90;;;;;;5075386;28;20805;-71
2023/01/24 03:44:34;;;;;;;8.63;4.17;;;3.30;99.90;;;;;;5071879;28;20530;-70
2023/01/24 03:47:01;;;;;;;4.07;3.67;;;3.30;99.90;;;;;;5071081;28;20459;-70
2023/01/24 03:52:30;;;;;;;2.20;2.00;;;3.30;99.90;;;;;;5071082;28;20403;-71
2023/01/24 03:54:58;;;;;;;1.80;1.10;;;3.30;99.90;;;;;;5071783;28;20804;-71
2023/01/24 03:57:26;;;;;;;1.60;1.50;;;3.30;99.90;;;;;;5071788;28;20880;-71
2023/01/24 03:59:54;;;;;;;3.90;2.83;;;3.30;99.90;;;;;;5075111;28;20448;-71
2023/01/24 04:02:22;;;;;;;4.80;3.03;;;3.30;99.90;;;;;;5074998;28;20424;-70
2023/01/24 04:07:33;;;;;;;3.30;2.30;;;3.30;99.90;;;;;;5074856;28;20989;-70
2023/01/24 04:10:00;;;;;;;1.90;1.30;;;3.70;99.90;;;;;;5074796;28;20447;-70
2023/01/24 04:12:27;;;;;;;2.13;1.93;;;3.80;99.90;;;;;;5074439;28;20455;-71
2023/01/24 04:14:56;;;;;;;1.73;1.50;;;3.70;99.90;;;;;;5072841;28;20852;-71
2023/01/24 04:17:22;;;;;;;2.63;1.80;;;3.60;99.90;;;;;;5074310;28;20452;-70
2023/01/24 04:19:50;;;;;;;4.80;4.37;;;3.50;99.90;;;;;;5078228;28;20448;-71
2023/01/24 04:22:18;;;;;;;3.43;2.43;;;3.50;99.90;;;;;;5076098;28;20539;-71
2023/01/24 04:24:45;;;;;;;1.43;1.33;;;3.50;99.90;;;;;;5079106;28;20446;-71
2023/01/24 04:27:13;;;;;;;6.17;3.47;;;3.40;99.90;;;;;;5074582;28;20431;-70
2023/01/24 04:29:40;;;;;;;6.90;3.70;;;3.40;99.90;;;;;;5073905;28;20547;-70
2023/01/24 04:32:08;;;;;;;2.10;1.90;;;3.50;99.90;;;;;;5074261;28;20544;-70
2023/01/24 04:34:35;;;;;;;8.90;2.67;;;3.40;99.90;;;;;;5074292;28;20538;-70
2023/01/24 04:37:02;;;;;;;2.67;2.50;;;3.30;99.90;;;;;;5074343;28;20464;-70
2023/01/24 04:39:29;;;;;;;5.80;3.63;;;3.20;99.90;;;;;;5074585;28;20459;-70
2023/01/24 04:41:56;;;;;;;6.63;3.33;;;3.20;99.90;;;;;;5073928;28;20417;-71
2023/01/24 04:44:23;;;;;;;6.70;4.73;;;3.20;99.90;;;;;;5074004;28;20426;-71
2023/01/24 04:46:50;;;;;;;3.30;1.83;;;3.30;99.90;;;;;;5074075;28;20430;-70
2023/01/24 04:49:18;;;;;;;6.10;1.60;;;3.20;99.90;;;;;;5073677;28;20492;-70
2023/01/24 04:51:47;;;;;;;2.23;2.03;;;3.20;99.90;;;;;;5073897;28;20429;-70
2023/01/24 04:54:14;;;;;;;8.00;2.90;;;3.20;99.90;;;;;;5074206;28;20510;-70
2023/01/24 04:56:41;;;;;;;2.90;2.07;;;3.20;99.90;;;;;;5074020;28;20450;-70
2023/01/24 04:59:08;;;;;;;6.53;3.20;;;3.20;99.90;;;;;;5079881;28;20522;-70
2023/01/24 05:01:34;;;;;;;4.30;3.50;;;3.30;99.90;;;;;;5074612;28;20454;-69
2023/01/24 05:04:01;;;;;;;1.87;1.73;;;3.30;99.90;;;;;;5073997;28;20463;-71
2023/01/24 05:06:32;;;;;;;4.07;3.67;;;3.20;99.90;;;;;;5073581;28;20447;-70
2023/01/24 05:08:59;;;;;;;4.77;3.60;;;3.20;99.90;;;;;;5073218;28;20432;-70
2023/01/24 05:11:27;;;;;;;3.60;3.33;;;3.10;99.90;;;;;;5078608;28;20450;-69
2023/01/24 05:13:54;;;;;;;2.77;1.93;;;3.10;99.90;;;;;;5073954;28;20427;-71
2023/01/24 05:16:21;;;;;;;7.23;3.57;;;3.20;99.90;;;;;;5073323;28;20960;-70
2023/01/24 05:18:48;;;;;;;2.30;1.83;;;3.20;99.90;;;;;;5073030;28;20480;-70
2023/01/24 05:21:17;;;;;;;1.20;1.00;;;3.20;99.90;;;;;;5073824;28;20529;-71
2023/01/24 05:23:50;;;;;;;5.17;3.90;;;3.10;99.90;;;;;;5073978;28;20424;-71
2023/01/24 05:26:17;;;;;;;2.03;1.93;;;3.10;99.90;;;;;;5073700;28;20784;-70
2023/01/24 05:28:44;;;;;;;5.47;2.90;;;3.10;99.90;;;;;;5072580;28;21075;-71
2023/01/24 05:31:11;;;;;;;4.73;2.37;;;3.10;99.90;;;;;;5072925;28;20517;-70
2023/01/24 05:33:38;;;;;;;6.10;3.13;;;3.10;99.90;;;;;;5073053;28;20530;-70
2023/01/24 05:36:12;;;;;;;5.90;3.67;;;3.20;99.90;;;;;;5073012;28;20443;-71
2023/01/24 05:38:39;;;;;;;4.53;3.00;;;3.20;99.90;;;;;;5073116;28;20566;-71
2023/01/24 05:41:10;;;;;;;5.30;2.80;;;3.30;99.90;;;;;;5073611;28;20503;-71
2023/01/24 05:43:37;;;;;;;6.03;5.53;;;3.40;99.90;;;;;;5074724;28;20418;-70
2023/01/24 05:46:06;;;;;;;2.50;1.73;;;3.40;99.90;;;;;;5072858;28;20536;-71
2023/01/24 05:48:36;;;;;;;2.00;1.80;;;3.30;99.90;;;;;;5072504;28;20434;-70
2023/01/24 05:51:05;;;;;;;2.57;2.33;;;3.20;99.90;;;;;;5073145;28;20432;-71
2023/01/24 05:53:34;;;;;;;2.63;2.40;;;3.20;99.90;;;;;;5072654;28;20424;-70
2023/01/24 05:56:02;;;;;;;4.90;2.50;;;3.30;99.90;;;;;;5072770;28;20425;-71
2023/01/24 05:58:33;;;;;;;3.03;2.27;;;3.30;99.90;;;;;;5072373;28;20454;-70
2023/01/24 06:01:00;;;;;;;4.43;2.90;;;3.40;99.90;;;;;;5072870;28;20439;-71
2023/01/24 06:03:27;;;;;;;3.20;2.40;;;3.30;99.90;;;;;;5072781;28;20431;-71
2023/01/24 06:05:56;;;;;;;3.47;2.57;;;3.30;99.90;;;;;;5072709;28;20448;-71
2023/01/24 06:08:23;;;;;;;5.10;3.40;;;3.30;99.90;;;;;;5077658;28;20517;-70
2023/01/24 06:10:50;;;;;;;1.60;1.30;;;3.40;99.90;;;;;;5075536;28;20473;-71
2023/01/24 06:13:17;;;;;;;6.23;3.87;;;3.40;99.90;;;;;;5072847;28;20452;-71
2023/01/24 06:15:45;;;;;;;2.23;2.03;;;3.20;99.90;;;;;;5072849;28;20432;-71
2023/01/24 06:18:15;;;;;;;2.03;1.83;;;3.30;99.90;;;;;;5072939;28;20454;-71
2023/01/24 06:20:43;;;;;;;4.33;3.13;;;3.40;99.90;;;;;;5072425;28;20435;-70
2023/01/24 06:23:15;;;;;;;5.10;2.37;;;3.40;99.90;;;;;;5072095;28;20963;-71
2023/01/24 06:25:42;;;;;;;10.30;6.60;;;3.40;99.90;;;;;;5072134;28;20854;-71
2023/01/24 06:28:11;;;;;;;3.10;1.77;;;3.40;99.90;;;;;;5072218;28;20495;-71
2023/01/24 06:30:41;;;;;;;4.90;2.87;;;3.40;99.90;;;;;;5072031;28;20426;-71
2023/01/24 06:33:20;;;;;;;6.27;4.43;;;3.40;99.90;;;;;;5072153;28;20449;-70
2023/01/24 06:35:59;;;;;;;3.13;2.50;;;3.50;99.90;;;;;;5072208;28;20489;-71
2023/01/24 06:38:26;;;;;;;3.00;2.33;;;3.40;99.90;;;;;;5072208;28;20921;-70
2023/01/24 06:40:56;;;;;;;4.10;3.63;;;3.40;99.90;;;;;;5072805;28;20447;-70
2023/01/24 06:43:24;;;;;;;2.50;1.77;;;3.30;99.90;;;;;;5072892;28;20480;-70
2023/01/24 06:45:51;;;;;;;3.43;2.13;;;3.30;99.90;;;;;;5071843;28;20454;-70
2023/01/24 06:48:20;;;;;;;6.70;3.83;;;3.40;99.90;;;;;;5072011;28;20468;-71
2023/01/24 06:50:47;;;;;;;7.63;3.90;;;3.40;99.90;;;;;;5072255;28;20438;-71
2023/01/24 06:53:14;;;;;;;3.00;2.70;;;3.40;99.90;;;;;;5072079;28;20480;-71
2023/01/24 06:55:45;;;;;;;3.13;2.70;;;3.40;99.90;;;;;;5072032;28;20444;-71
2023/01/24 06:58:11;;;;;;;2.33;1.57;;;3.30;99.90;;;;;;5071877;28;20522;-70
2023/01/24 07:00:38;;;;;;;4.50;2.80;;;3.40;99.90;;;;;;5076536;28;20548;-71
2023/01/24 07:03:10;;;;;;;3.53;2.97;;;3.40;99.90;;;;;;5072427;28;20462;-70
2023/01/24 07:05:39;;;;;;;6.23;2.77;;;3.40;99.90;;;;;;5071700;28;20427;-70
2023/01/24 07:08:07;;;;;;;4.10;2.50;;;3.40;99.90;;;;;;5081210;28;20522;-70
2023/01/24 07:10:34;;;;;;;12.27;4.30;;;3.30;99.90;;;;;;5071829;28;20509;-70
2023/01/24 07:13:01;;;;;;;4.87;3.47;;;3.40;99.90;;;;;;5071963;28;20456;-70
2023/01/24 07:15:28;;;;;;;5.67;2.57;;;3.40;99.90;;;;;;5071469;28;20958;-69
2023/01/24 07:17:56;;;;;;;7.07;3.80;;;3.40;99.90;;;;;;5071972;28;20938;-70
2023/01/24 07:20:23;;;;;;;5.20;3.77;;;3.40;99.90;;;;;;5072151;28;20578;-70
2023/01/24 07:22:52;;;;;;;4.30;2.73;;;3.40;99.90;;;;;;5071597;28;20503;-70
2023/01/24 07:25:23;;;;;;;5.80;3.60;;;3.40;99.90;;;;;;5071343;28;20527;-71
2023/01/24 07:27:50;;;;;;;6.40;3.97;;;3.40;99.90;;;;;;5071789;28;20991;-70
2023/01/24 07:30:17;;;;;;;3.33;2.40;;;3.40;99.90;;;;;;5071488;28;20824;-70
2023/01/24 07:32:47;;;;;;;4.27;3.50;;;3.40;99.90;;;;;;5072984;28;20787;-70
2023/01/24 07:35:14;;;;;;;6.27;3.83;;;3.30;99.90;;;;;;5075856;28;20441;-70
2023/01/24 07:37:45;;;;;;;3.20;2.63;;;3.40;99.90;;;;;;5075336;28;20470;-71
2023/01/24 07:40:14;;;;;;;4.67;2.57;;;3.50;99.90;;;;;;5075795;28;20468;-70
2023/01/24 07:42:41;;;;;;;8.53;3.90;;;3.50;99.90;;;;;;5075300;28;20573;-70
2023/01/24 07:45:09;;;;;;;4.70;2.67;;;3.60;99.90;;;;;;5075641;28;20486;-70
2023/01/24 07:47:36;;;;;;;8.10;3.60;;;3.60;99.90;;;;;;5075829;28;20550;-70
2023/01/24 07:50:03;;;;;;;10.00;3.17;;;3.50;99.90;;;;;;5075469;28;20449;-70
2023/01/24 07:52:30;;;;;;;7.17;6.23;;;3.50;99.90;;;;;;5075632;28;20454;-70
2023/01/24 07:54:56;;;;;;;1.30;1.20;;;3.40;99.90;;;;;;5076146;28;20425;-71
2023/01/24 07:57:25;;;;;;;7.23;3.70;;;3.40;99.90;;;;;;5075324;28;20996;-70
2023/01/24 07:59:52;;;;;;;5.70;3.00;;;3.30;99.90;;;;;;5075284;28;20458;-71
2023/01/24 08:02:20;;;;;;;3.50;3.20;;;3.40;99.90;;;;;;5075210;28;20425;-70
2023/01/24 08:04:47;;;;;;;4.10;2.90;;;3.60;99.90;;;;;;5075058;28;20436;-70
2023/01/24 08:07:20;;;;;;;11.70;3.53;;;3.50;99.90;;;;;;5078658;28;20442;-71
2023/01/24 08:09:48;;;;;;;3.77;2.60;;;3.60;99.90;;;;;;5075265;28;20425;-70
2023/01/24 08:12:15;;;;;;;3.80;3.10;;;3.60;99.90;;;;;;5075462;28;20517;-70
2023/01/24 08:14:45;;;;;;;4.10;2.90;;;3.60;99.90;;;;;;5074820;28;20490;-70
2023/01/24 08:17:12;;;;;;;3.57;2.37;;;3.50;99.90;;;;;;5075268;28;20539;-70
2023/01/24 08:19:39;;;;;;;8.17;4.17;;;3.40;99.90;;;;;;5078535;28;20472;-70
2023/01/24 08:22:07;;;;;;;6.50;4.50;;;3.40;99.90;;;;;;5075065;28;20805;-70
2023/01/24 08:24:34;;;;;;;3.93;2.37;;;3.50;99.90;;;;;;5074803;28;20930;-70
2023/01/24 08:27:02;;;;;;;4.33;2.90;;;3.60;99.90;;;;;;5074579;28;20974;-70
2023/01/24 08:29:30;;;;;;;9.83;3.80;;;3.60;99.90;;;;;;5074509;28;20430;-70
2023/01/24 08:31:58;;;;;;;6.30;3.43;;;3.70;99.90;;;;;;5074102;28;20426;-71
2023/01/24 08:34:26;;;;;;;3.20;2.90;;;3.70;99.90;;;;;;5074664;28;20447;-70
2023/01/24 08:36:53;;;;;;;2.70;2.47;;;3.70;99.90;;;;;;5074636;28;20535;-70
2023/01/24 08:39:20;;;;;;;3.60;2.73;;;3.70;99.90;;;;;;5074718;28;20483;-69
2023/01/24 08:41:46;;;;;;;2.80;2.50;;;3.50;99.90;;;;;;5074510;28;20430;-69
2023/01/24 08:44:15;;;;;;;4.80;3.57;;;3.30;99.90;;;;;;5073374;28;20798;-70
2023/01/24 08:46:42;;;;;;;3.13;2.80;;;3.30;99.90;;;;;;5074066;28;20955;-70
2023/01/24 08:49:12;;;;;;;6.93;3.10;;;3.40;99.90;;;;;;5074364;28;20550;-70
2023/01/24 08:51:39;;;;;;;5.00;1.80;;;3.50;99.90;;;;;;5074494;28;20444;-70
2023/01/24 08:54:06;;;;;;;5.43;3.53;;;3.40;99.90;;;;;;5074247;28;20418;-70
2023/01/24 08:56:34;;;;;;;7.30;4.20;;;3.40;99.90;;;;;;5074426;28;20447;-70
2023/01/24 08:59:01;;;;;;;2.47;2.27;;;3.40;99.90;;;;;;5073918;28;20547;-70
2023/01/24 09:01:28;;;;;;;6.17;4.40;;;3.50;99.90;;;;;;5074558;28;20453;-71
2023/01/24 09:03:56;;;;;;;4.20;3.37;;;3.50;99.90;;;;;;5074761;28;20554;-70
2023/01/24 09:06:25;;;;;;;3.40;3.10;;;3.70;99.90;;;;;;5079734;28;20458;-71
2023/01/24 09:08:53;;;;;;;6.30;3.87;;;3.70;99.90;;;;;;5074359;28;21020;-71
2023/01/24 09:11:21;;;;;;;7.77;5.47;;;3.80;99.90;;;;;;5074304;28;20528;-70
2023/01/24 09:13:49;;;;;;;3.13;1.97;;;3.70;99.90;;;;;;5074362;28;20445;-70
2023/01/24 09:16:16;;;;;;;6.70;4.20;;;3.60;99.90;;;;;;5074291;28;20480;-70
2023/01/24 09:18:43;;;;;;;8.63;4.17;;;3.80;99.90;;;;;;5074076;28;20452;-70
2023/01/24 09:21:11;;;;;;;3.17;2.73;;;3.90;99.90;;;;;;5073577;28;21061;-70
2023/01/24 09:23:39;;;;;;;5.07;4.70;;;3.80;99.90;;;;;;5073677;28;20484;-70
2023/01/24 09:26:08;;;;;;;5.50;3.67;;;3.80;99.90;;;;;;5073784;28;20447;-70
2023/01/24 09:28:36;;;;;;;3.33;2.97;;;3.80;99.90;;;;;;5074017;28;20463;-70
2023/01/24 09:31:03;;;;;;;8.23;4.17;;;3.80;99.90;;;;;;5074081;28;20441;-70
2023/01/24 09:33:30;;;;;;;6.57;4.60;;;3.80;99.90;;;;;;5073465;28;20452;-70
2023/01/24 09:35:59;;;;;;;5.90;4.53;;;3.80;99.90;;;;;;5074241;28;20546;-71
2023/01/24 09:38:27;;;;;;;5.40;3.50;;;3.80;99.90;;;;;;5075466;28;20474;-70
2023/01/24 09:41:11;;;;;;;3.17;2.33;;;3.80;99.90;;;;;;5073389;28;20479;-70
2023/01/24 09:43:45;;;;;;;4.70;3.40;;;3.80;99.90;;;;;;5073226;28;20510;-70
2023/01/24 09:46:21;;;;;;;5.63;2.20;;;3.90;99.90;;;;;;5073932;28;20432;-70
2023/01/24 09:48:50;;;;;;;2.70;2.10;;;3.80;99.90;;;;;;5073352;28;20617;-70
2023/01/24 09:51:24;;;;;;;2.50;2.30;;;3.80;99.90;;;;;;5073515;28;20433;-70
2023/01/24 09:53:54;;;;;;;3.93;3.03;;;3.60;99.90;;;;;;5073348;28;20427;-71
2023/01/24 09:56:30;;;;;;;4.30;3.50;;;3.50;99.90;;;;;;5072812;28;20418;-71
2023/01/24 09:59:10;;;;;;;6.67;3.30;;;3.50;99.90;;;;;;5073161;28;20814;-71
2023/01/24 10:01:40;;;;;;;5.23;4.67;;;3.80;99.90;;;;;;5071715;28;20445;-71
2023/01/24 10:04:16;;;;;;;3.40;3.07;;;3.80;99.90;;;;;;5074828;28;20548;-71
2023/01/24 10:06:59;;;;;;;3.10;2.03;;;3.70;99.90;;;;;;5072924;28;20744;-71
2023/01/24 10:09:36;;;;;;;2.90;2.23;;;3.60;99.90;;;;;;5072567;28;20839;-71
2023/01/24 10:12:17;;;;;;;1.90;1.47;;;3.60;99.90;;;;;;5073127;28;20466;-71
2023/01/24 10:14:54;;;;;;;3.80;2.70;;;3.60;99.90;;;;;;5072772;28;20819;-70
2023/01/24 10:17:51;;;;;;;4.53;2.80;;;3.70;99.90;;;;;;5072726;28;20875;-71
2023/01/24 10:20:36;;;;;;;5.27;3.17;;;3.80;99.90;;;;;;5072196;28;21052;-71
2023/01/24 10:23:13;;;;;;;4.93;2.70;;;3.80;99.90;;;;;;5072504;28;20414;-71
2023/01/24 10:25:50;;;;;;;1.50;1.40;;;3.80;99.90;;;;;;5072694;28;20924;-71
2023/01/24 10:28:23;;;;;;;2.57;1.97;;;3.80;99.90;;;;;;5072473;28;20469;-71
2023/01/24 10:31:08;;;;;;;3.33;2.77;;;3.70;99.90;;;;;;5072725;28;20431;-71
2023/01/24 10:33:45;;;;;;;1.10;1.00;;;3.60;99.90;;;;;;5072762;28;20455;-71
2023/01/24 10:36:16;;;;;;;2.03;1.43;;;3.60;99.90;;;;;;5072933;28;20427;-71
2023/01/24 10:38:44;;;;;;;3.47;2.90;;;3.60;99.90;;;;;;5070673;28;20556;-71
2023/01/24 10:41:21;;;;;;;4.47;3.17;;;3.70;99.90;;;;;;5071893;28;20454;-70
2023/01/24 10:43:56;;;;;;;5.10;4.50;;;3.70;99.90;;;;;;5072538;28;20440;-71
2023/01/24 10:46:49;;;;;;;8.10;5.60;;;3.80;99.90;;;;;;5072383;28;20860;-71
2023/01/24 10:49:23;;;;;;;3.53;2.63;;;3.80;99.90;;;;;;5072228;28;20570;-70
2023/01/24 10:52:11;;;;;;;4.83;3.33;;;3.90;99.90;;;;;;5072274;28;20933;-71
2023/01/24 10:54:46;;;;;;;3.97;2.23;;;4.00;99.90;;;;;;5073461;28;20426;-70
2023/01/24 10:57:27;;;;;;;2.03;1.53;;;4.00;99.90;;;;;;5073769;28;20427;-70
2023/01/24 10:59:55;;;;;;;5.00;2.90;;;3.90;99.90;;;;;;5072088;28;20560;-70
2023/01/24 11:02:24;;;;;;;8.83;6.03;;;3.90;99.90;;;;;;5074069;28;20517;-70
2023/01/24 11:05:00;;;;;;;6.73;3.77;;;3.80;99.90;;;;;;5073274;28;20772;-70
2023/01/24 11:07:30;;;;;;;4.60;2.80;;;3.80;99.90;;;;;;5072062;28;20789;-70
2023/01/24 11:10:01;;;;;;;4.57;2.93;;;3.80;99.90;;;;;;5071959;28;20414;-70
2023/01/24 11:12:29;;;;;;;5.30;3.07;;;3.80;99.90;;;;;;5072000;28;20454;-71
2023/01/24 11:14:57;;;;;;;2.00;1.80;;;3.80;99.90;;;;;;5071920;28;20426;-70
2023/01/24 11:17:32;;;;;;;2.33;2.13;;;3.80;99.90;;;;;;5072160;28;20463;-70
2023/01/24 11:20:05;;;;;;;3.00;2.00;;;3.70;99.90;;;;;;5071958;28;20555;-70
2023/01/24 11:22:34;;;;;;;6.53;4.27;;;3.70;99.90;;;;;;5071888;28;20994;-70
2023/01/24 11:25:04;;;;;;;3.00;1.60;;;3.80;99.90;;;;;;5071727;28;20444;-70
2023/01/24 11:27:31;;;;;;;2.67;1.60;;;3.80;99.90;;;;;;5071594;28;20488;-70
2023/01/24 11:30:20;;;;;;;5.77;4.30;;;3.80;99.90;;;;;;5071763;28;20449;-70
2023/01/24 11:32:59;;;;;;;2.27;2.07;;;3.80;99.90;;;;;;5071605;28;20856;-70
2023/01/24 11:35:30;;;;;;;1.87;1.53;;;3.90;99.90;;;;;;5071859;28;20496;-70
2023/01/24 11:38:10;;;;;;;1.70;1.50;;;3.80;99.90;;;;;;5071443;28;20468;-71
2023/01/24 11:40:42;;;;;;;3.13;1.83;;;3.90;99.90;;;;;;5071667;28;20441;-70
2023/01/24 11:43:41;;;;;;;6.87;3.30;;;3.80;99.90;;;;;;5071695;28;20857;-71
2023/01/24 11:46:35;;;;;;;9.50;4.67;;;3.80;99.90;;;;;;5014514;28;20496;-70
2023/01/24 11:49:19;;;;;;;1.67;1.57;;;3.90;99.90;;;;;;5064690;28;20466;-71
2023/01/24 11:51:55;;;;;;;4.30;3.93;;;4.00;99.90;;;;;;5071974;28;20457;-71
2023/01/24 11:54:36;;;;;;;1.50;1.40;;;3.80;99.90;;;;;;5071470;28;20783;-70
2023/01/24 11:57:12;;;;;;;4.10;2.33;;;3.70;99.90;;;;;;5071571;28;20481;-71
2023/01/24 11:59:50;;;;;;;2.03;1.83;;;3.70;99.90;;;;;;5071545;28;20511;-71
2023/01/24 12:05:47;;;;;;;2.87;2.20;;;3.70;99.90;;;;;;5089593;27;20519;-72
2023/01/24 12:08:30;;;;;;;4.70;2.20;;;3.90;99.90;;;;;;5089761;28;20498;-71
2023/01/24 12:11:02;;;;;;;2.07;1.90;;;4.10;99.90;;;;;;5089862;28;20426;-72
2023/01/24 12:13:36;;;;;;;5.73;2.50;;;4.00;99.90;;;;;;5091059;28;20403;-71
2023/01/24 12:16:19;;;;;;;5.43;2.77;;;3.90;99.90;;;;;;5090945;28;20492;-71
2023/01/24 12:19:02;;;;;;;2.67;2.17;;;3.90;99.90;;;;;;5088911;28;20535;-71
2023/01/24 12:21:31;;;;;;;4.37;2.97;;;4.00;99.90;;;;;;5090694;28;20425;-71
2023/01/24 12:24:02;;;;;;;6.20;4.63;;;4.00;99.90;;;;;;5088864;28;20503;-71
2023/01/24 12:26:33;;;;;;;14.10;4.47;;;4.10;99.90;;;;;;5089366;28;20746;-71
2023/01/24 12:29:07;;;;;;;3.53;2.40;;;4.30;99.90;;;;;;5089399;28;20527;-72
2023/01/24 12:31:43;;;;;;;8.43;5.80;;;4.50;99.90;;;;;;5088600;28;20459;-71
2023/01/24 12:34:22;;;;;;;2.27;2.00;;;4.50;99.90;;;;;;5088644;28;20479;-71
2023/01/24 12:36:59;;;;;;;7.10;4.33;;;4.40;99.90;;;;;;5088940;28;20480;-71
2023/01/24 12:39:33;;;;;;;9.77;4.50;;;4.40;99.90;;;;;;5088783;28;20425;-71
2023/01/24 12:42:09;;;;;;;7.20;4.27;;;4.40;99.90;;;;;;5088705;28;20403;-71
2023/01/24 12:44:43;;;;;;;6.30;4.80;;;4.40;99.90;;;;;;5088621;28;20472;-71
2023/01/24 12:47:24;;;;;;;3.53;2.37;;;4.40;99.90;;;;;;5088535;28;20897;-71
2023/01/24 12:50:02;;;;;;;2.40;1.70;;;4.30;99.90;;;;;;5088557;28;20475;-71
2023/01/24 12:52:36;;;;;;;5.70;3.03;;;4.10;99.90;;;;;;5088041;28;20442;-71
2023/01/24 12:55:11;;;;;;;5.77;3.93;;;4.00;99.90;;;;;;5088340;28;20427;-71
2023/01/24 12:57:42;;;;;;;4.90;4.23;;;4.00;99.90;;;;;;5088207;28;20514;-71
2023/01/24 13:00:17;;;;;;;6.40;3.50;;;4.10;99.90;;;;;;5053046;28;20435;-72
2023/01/24 13:03:17;;;;;;;8.40;4.33;;;4.20;99.90;;;;;;5088190;28;20438;-72
2023/01/24 13:05:53;;;;;;;5.70;4.07;;;4.40;99.90;;;;;;5073277;28;20957;-71
2023/01/24 13:08:33;;;;;;;1.60;1.43;;;4.40;99.90;;;;;;5088372;28;20432;-71
2023/01/24 13:11:17;;;;;;;8.80;3.27;;;4.30;99.90;;;;;;5087957;28;20499;-72
2023/01/24 13:13:52;;;;;;;3.00;2.23;;;4.00;99.90;;;;;;5088102;28;20435;-72
2023/01/24 13:16:46;;;;;;;3.70;3.40;;;4.00;99.90;;;;;;5075506;28;20427;-71
2023/01/24 13:19:23;;;;;;;3.13;1.43;;;3.90;99.90;;;;;;5051333;28;21056;-71
2023/01/24 13:21:56;;;;;;;4.80;3.70;;;3.90;99.90;;;;;;5074203;28;20932;-72
2023/01/24 13:24:48;;;;;;;2.93;2.67;;;4.00;99.90;;;;;;5074291;28;20515;-71
2023/01/24 13:27:38;;;;;;;8.37;4.90;;;4.00;99.90;;;;;;5074171;28;20435;-71
2023/01/24 13:30:21;;;;;;;8.90;4.77;;;4.10;99.90;;;;;;5074550;28;20494;-71
2023/01/24 13:32:49;;;;;;;7.93;5.80;;;4.10;99.90;;;;;;5077164;28;20405;-71
2023/01/24 13:35:19;;;;;;;5.13;3.50;;;4.20;99.90;;;;;;5074124;28;20997;-71
2023/01/24 13:37:51;;;;;;;4.30;3.63;;;4.20;99.90;;;;;;5073311;28;20539;-71
2023/01/24 13:40:30;;;;;;;13.50;5.27;;;4.10;99.90;;;;;;5073963;28;20431;-71
2023/01/24 13:42:58;;;;;;;6.63;4.90;;;4.00;99.90;;;;;;5073875;28;20868;-71
2023/01/24 13:45:49;;;;;;;5.20;4.30;;;4.20;99.90;;;;;;5073980;28;20458;-71
2023/01/24 13:48:47;;;;;;;8.60;5.20;;;4.20;99.90;;;;;;5073433;28;20448;-71
2023/01/24 13:51:45;;;;;;;5.63;3.37;;;4.20;99.90;;;;;;5011399;28;20930;-70
2023/01/24 13:54:37;;;;;;;3.97;3.50;;;4.00;99.90;;;;;;5018819;28;20531;-71
2023/01/24 13:57:37;;;;;;;1.73;1.10;;;4.00;99.90;;;;;;5073481;28;20424;-71
2023/01/24 14:00:26;;;;;;;5.77;3.57;;;3.80;99.90;;;;;;5015478;28;20426;-71
2023/01/24 14:03:26;;;;;;;4.87;4.37;;;3.80;99.90;;;;;;5069168;28;20548;-71
2023/01/24 14:05:57;;;;;;;3.23;2.20;;;3.90;99.90;;;;;;5073231;28;20401;-71
2023/01/24 14:09:00;;;;;;;6.67;3.50;;;3.90;99.90;;;;;;5073231;28;20464;-71